sensor_id;sensor_type;location;lat;lon;timestamp;pressure;altitude;pressure_sealevel;temperature;humidity
65329;BME280;51941;52.210;5.158;2023-03-16T00:00:13;101681.88;;;5.15;75.53
65329;BME280;51941;52.210;5.158;2023-03-16T00:02:42;101699.50;;;5.29;76.10
65329;BME280;51941;52.210;5.158;2023-03-16T00:05:10;101691.78;;;5.27;76.66
65329;BME280;51941;52.210;5.158;2023-03-16T00:07:38;101687.84;;;5.31;76.51
65329;BME280;51941;52.210;5.158;2023-03-16T00:10:07;101678.31;;;5.30;76.79
65329;BME280;51941;52.210;5.158;2023-03-16T00:12:33;101675.63;;;5.38;76.52
65329;BME280;51941;52.210;5.158;2023-03-16T00:15:00;101664.72;;;5.27;76.60
65329;BME280;51941;52.210;5.158;2023-03-16T00:17:29;101671.72;;;5.34;76.80
65329;BME280;51941;52.210;5.158;2023-03-16T00:19:57;101666.94;;;5.38;76.68
65329;BME280;51941;52.210;5.158;2023-03-16T00:22:26;101663.56;;;5.29;77.17
65329;BME280;51941;52.210;5.158;2023-03-16T00:24:53;101635.09;;;5.18;77.22
65329;BME280;51941;52.210;5.158;2023-03-16T00:27:22;101654.88;;;5.29;77.26
65329;BME280;51941;52.210;5.158;2023-03-16T00:29:51;101655.34;;;5.32;77.82
65329;BME280;51941;52.210;5.158;2023-03-16T00:32:22;101658.13;;;5.31;77.81
65329;BME280;51941;52.210;5.158;2023-03-16T00:34:49;101649.97;;;5.26;78.41
65329;BME280;51941;52.210;5.158;2023-03-16T00:37:19;101645.84;;;5.31;78.49
65329;BME280;51941;52.210;5.158;2023-03-16T00:39:48;101652.53;;;5.34;78.39
65329;BME280;51941;52.210;5.158;2023-03-16T00:42:17;101647.97;;;5.28;79.34
65329;BME280;51941;52.210;5.158;2023-03-16T00:44:44;101634.75;;;5.21;79.50
65329;BME280;51941;52.210;5.158;2023-03-16T00:47:11;101649.56;;;5.37;79.12
65329;BME280;51941;52.210;5.158;2023-03-16T00:49:40;101653.81;;;5.38;79.48
65329;BME280;51941;52.210;5.158;2023-03-16T00:52:08;101647.09;;;5.35;79.73
65329;BME280;51941;52.210;5.158;2023-03-16T00:54:40;101635.59;;;5.36;80.15
65329;BME280;51941;52.210;5.158;2023-03-16T00:57:09;101628.91;;;5.34;80.91
65329;BME280;51941;52.210;5.158;2023-03-16T00:59:36;101600.97;;;5.18;80.57
65329;BME280;51941;52.210;5.158;2023-03-16T01:02:04;101620.34;;;5.40;80.55
65329;BME280;51941;52.210;5.158;2023-03-16T01:04:31;101590.41;;;5.26;80.28
65329;BME280;51941;52.210;5.158;2023-03-16T01:06:58;101614.72;;;5.43;80.25
65329;BME280;51941;52.210;5.158;2023-03-16T01:09:25;101615.69;;;5.42;80.61
65329;BME280;51941;52.210;5.158;2023-03-16T01:11:53;101588.59;;;5.27;81.12
65329;BME280;51941;52.210;5.158;2023-03-16T01:14:21;101619.34;;;5.41;81.38
65329;BME280;51941;52.210;5.158;2023-03-16T01:16:48;101616.06;;;5.39;81.74
65329;BME280;51941;52.210;5.158;2023-03-16T01:19:16;101605.47;;;5.32;82.13
65329;BME280;51941;52.210;5.158;2023-03-16T01:21:43;101606.00;;;5.42;81.82
65329;BME280;51941;52.210;5.158;2023-03-16T01:24:09;101591.63;;;5.38;81.60
65329;BME280;51941;52.210;5.158;2023-03-16T01:26:36;101594.69;;;5.42;82.28
65329;BME280;51941;52.210;5.158;2023-03-16T01:29:05;101574.13;;;5.31;82.53
65329;BME280;51941;52.210;5.158;2023-03-16T01:31:31;101593.19;;;5.48;82.49
65329;BME280;51941;52.210;5.158;2023-03-16T01:33:58;101587.38;;;5.52;81.99
65329;BME280;51941;52.210;5.158;2023-03-16T01:36:29;101579.72;;;5.51;81.88
65329;BME280;51941;52.210;5.158;2023-03-16T01:39:01;101578.06;;;5.50;82.36
65329;BME280;51941;52.210;5.158;2023-03-16T01:41:33;101584.75;;;5.52;82.04
65329;BME280;51941;52.210;5.158;2023-03-16T01:44:00;101573.44;;;5.52;82.86
65329;BME280;51941;52.210;5.158;2023-03-16T01:46:29;101563.13;;;5.50;82.90
65329;BME280;51941;52.210;5.158;2023-03-16T01:49:01;101524.63;;;5.28;83.06
65329;BME280;51941;52.210;5.158;2023-03-16T01:51:35;101559.50;;;5.51;83.23
65329;BME280;51941;52.210;5.158;2023-03-16T01:54:06;101548.97;;;5.51;83.02
65329;BME280;51941;52.210;5.158;2023-03-16T01:56:38;101545.75;;;5.49;83.39
65329;BME280;51941;52.210;5.158;2023-03-16T01:59:12;101547.38;;;5.50;83.29
65329;BME280;51941;52.210;5.158;2023-03-16T02:01:41;101538.22;;;5.46;83.40
65329;BME280;51941;52.210;5.158;2023-03-16T02:04:17;101539.69;;;5.49;84.20
65329;BME280;51941;52.210;5.158;2023-03-16T02:06:49;101541.91;;;5.52;84.17
65329;BME280;51941;52.210;5.158;2023-03-16T02:09:18;101541.41;;;5.56;84.07
65329;BME280;51941;52.210;5.158;2023-03-16T02:11:48;101533.16;;;5.59;83.67
65329;BME280;51941;52.210;5.158;2023-03-16T02:14:15;101527.34;;;5.64;83.77
65329;BME280;51941;52.210;5.158;2023-03-16T02:16:44;101523.91;;;5.63;84.34
65329;BME280;51941;52.210;5.158;2023-03-16T02:19:20;101526.91;;;5.60;85.26
65329;BME280;51941;52.210;5.158;2023-03-16T02:21:58;101505.53;;;5.49;85.46
65329;BME280;51941;52.210;5.158;2023-03-16T02:24:27;101496.03;;;5.48;85.58
65329;BME280;51941;52.210;5.158;2023-03-16T02:26:56;101518.66;;;5.63;85.50
65329;BME280;51941;52.210;5.158;2023-03-16T02:29:51;101510.44;;;5.66;85.03
65329;BME280;51941;52.210;5.158;2023-03-16T02:32:22;101508.91;;;5.57;86.73
65329;BME280;51941;52.210;5.158;2023-03-16T02:34:49;101515.50;;;5.53;87.49
65329;BME280;51941;52.210;5.158;2023-03-16T02:37:16;101487.81;;;5.51;87.01
65329;BME280;51941;52.210;5.158;2023-03-16T02:39:43;101508.50;;;5.60;87.40
65329;BME280;51941;52.210;5.158;2023-03-16T02:42:18;101516.50;;;5.67;86.84
65329;BME280;51941;52.210;5.158;2023-03-16T02:44:51;101510.59;;;5.65;86.92
65329;BME280;51941;52.210;5.158;2023-03-16T02:47:27;101513.50;;;5.70;87.56
65329;BME280;51941;52.210;5.158;2023-03-16T02:49:56;101517.50;;;5.66;87.96
65329;BME280;51941;52.210;5.158;2023-03-16T02:52:22;101515.88;;;5.65;88.52
65329;BME280;51941;52.210;5.158;2023-03-16T02:54:50;101515.94;;;5.71;88.22
65329;BME280;51941;52.210;5.158;2023-03-16T02:57:17;101491.59;;;5.63;88.28
65329;BME280;51941;52.210;5.158;2023-03-16T02:59:43;101509.22;;;5.69;89.66
65329;BME280;51941;52.210;5.158;2023-03-16T03:02:12;101486.69;;;5.60;89.18
65329;BME280;51941;52.210;5.158;2023-03-16T03:04:38;101513.78;;;5.75;89.41
65329;BME280;51941;52.210;5.158;2023-03-16T03:07:06;101489.78;;;5.63;90.03
65329;BME280;51941;52.210;5.158;2023-03-16T03:09:49;101503.44;;;5.73;90.07
65329;BME280;51941;52.210;5.158;2023-03-16T03:12:17;101468.59;;;5.50;90.23
65329;BME280;51941;52.210;5.158;2023-03-16T03:14:44;101509.53;;;5.74;90.10
65329;BME280;51941;52.210;5.158;2023-03-16T03:17:17;101514.41;;;5.62;91.80
65329;BME280;51941;52.210;5.158;2023-03-16T03:19:44;101506.44;;;5.70;91.66
65329;BME280;51941;52.210;5.158;2023-03-16T03:22:11;101509.06;;;5.70;91.30
65329;BME280;51941;52.210;5.158;2023-03-16T03:24:42;101476.19;;;5.60;90.76
65329;BME280;51941;52.210;5.158;2023-03-16T03:27:09;101499.44;;;5.77;90.86
65329;BME280;51941;52.210;5.158;2023-03-16T03:29:37;101428.78;;;5.32;91.94
65329;BME280;51941;52.210;5.158;2023-03-16T03:32:04;101491.94;;;5.74;92.19
65329;BME280;51941;52.210;5.158;2023-03-16T03:34:33;101480.16;;;5.70;92.85
65329;BME280;51941;52.210;5.158;2023-03-16T03:37:00;101478.34;;;5.71;92.60
65329;BME280;51941;52.210;5.158;2023-03-16T03:39:27;101472.47;;;5.69;93.63
65329;BME280;51941;52.210;5.158;2023-03-16T03:41:54;101474.91;;;5.70;93.47
65329;BME280;51941;52.210;5.158;2023-03-16T03:44:22;101448.03;;;5.54;93.07
65329;BME280;51941;52.210;5.158;2023-03-16T03:46:49;101479.91;;;5.65;94.38
65329;BME280;51941;52.210;5.158;2023-03-16T03:49:17;101473.38;;;5.61;95.34
65329;BME280;51941;52.210;5.158;2023-03-16T03:51:45;101473.28;;;5.55;96.00
65329;BME280;51941;52.210;5.158;2023-03-16T03:54:16;101466.97;;;5.64;95.68
65329;BME280;51941;52.210;5.158;2023-03-16T03:56:42;101455.47;;;5.65;95.02
65329;BME280;51941;52.210;5.158;2023-03-16T03:59:13;101438.63;;;5.45;95.38
65329;BME280;51941;52.210;5.158;2023-03-16T04:01:59;101450.31;;;5.57;95.54
65329;BME280;51941;52.210;5.158;2023-03-16T04:04:36;101449.66;;;5.55;96.37
65329;BME280;51941;52.210;5.158;2023-03-16T04:07:04;101446.22;;;5.54;96.14
65329;BME280;51941;52.210;5.158;2023-03-16T04:09:31;101451.28;;;5.56;96.15
65329;BME280;51941;52.210;5.158;2023-03-16T04:11:59;101439.72;;;5.50;97.29
65329;BME280;51941;52.210;5.158;2023-03-16T04:14:26;101438.19;;;5.41;98.08
65329;BME280;51941;52.210;5.158;2023-03-16T04:16:53;101415.38;;;5.27;98.63
65329;BME280;51941;52.210;5.158;2023-03-16T04:19:21;101444.75;;;5.52;97.73
65329;BME280;51941;52.210;5.158;2023-03-16T04:21:48;101443.41;;;5.56;97.58
65329;BME280;51941;52.210;5.158;2023-03-16T04:24:18;101427.13;;;5.46;98.13
65329;BME280;51941;52.210;5.158;2023-03-16T04:26:47;101433.91;;;5.55;98.29
65329;BME280;51941;52.210;5.158;2023-03-16T04:29:14;101440.34;;;5.52;99.07
65329;BME280;51941;52.210;5.158;2023-03-16T04:31:43;101420.41;;;5.43;98.72
65329;BME280;51941;52.210;5.158;2023-03-16T04:34:12;101429.66;;;5.54;98.90
65329;BME280;51941;52.210;5.158;2023-03-16T04:36:39;101385.16;;;5.31;98.49
65329;BME280;51941;52.210;5.158;2023-03-16T04:39:07;101427.31;;;5.59;98.60
65329;BME280;51941;52.210;5.158;2023-03-16T04:41:36;101421.84;;;5.60;98.89
65329;BME280;51941;52.210;5.158;2023-03-16T04:44:14;101431.63;;;5.52;100.00
65329;BME280;51941;52.210;5.158;2023-03-16T04:46:42;101429.13;;;5.58;100.00
65329;BME280;51941;52.210;5.158;2023-03-16T04:49:10;101417.50;;;5.53;100.00
65329;BME280;51941;52.210;5.158;2023-03-16T04:51:38;101423.22;;;5.56;100.00
65329;BME280;51941;52.210;5.158;2023-03-16T04:54:09;101417.97;;;5.56;100.00
65329;BME280;51941;52.210;5.158;2023-03-16T04:56:41;101422.88;;;5.59;100.00
65329;BME280;51941;52.210;5.158;2023-03-16T04:59:28;101417.16;;;5.56;100.00
65329;BME280;51941;52.210;5.158;2023-03-16T05:02:03;101408.81;;;5.52;100.00
65329;BME280;51941;52.210;5.158;2023-03-16T05:04:30;101420.50;;;5.64;100.00
65329;BME280;51941;52.210;5.158;2023-03-16T05:06:59;101421.13;;;5.66;100.00
65329;BME280;51941;52.210;5.158;2023-03-16T05:09:31;101414.06;;;5.67;100.00
65329;BME280;51941;52.210;5.158;2023-03-16T05:11:59;101412.25;;;5.53;100.00
65329;BME280;51941;52.210;5.158;2023-03-16T05:14:26;101425.19;;;5.69;100.00
65329;BME280;51941;52.210;5.158;2023-03-16T05:17:11;101424.41;;;5.68;100.00
65329;BME280;51941;52.210;5.158;2023-03-16T05:19:40;101418.75;;;5.71;100.00
65329;BME280;51941;52.210;5.158;2023-03-16T05:22:07;101392.53;;;5.57;100.00
65329;BME280;51941;52.210;5.158;2023-03-16T05:24:36;101420.84;;;5.61;100.00
65329;BME280;51941;52.210;5.158;2023-03-16T05:27:04;101421.56;;;5.70;100.00
65329;BME280;51941;52.210;5.158;2023-03-16T05:29:32;101429.00;;;5.66;100.00
65329;BME280;51941;52.210;5.158;2023-03-16T05:31:59;101423.75;;;5.66;100.00
65329;BME280;51941;52.210;5.158;2023-03-16T05:34:27;101390.25;;;5.54;100.00
65329;BME280;51941;52.210;5.158;2023-03-16T05:36:54;101410.63;;;5.66;100.00
65329;BME280;51941;52.210;5.158;2023-03-16T05:39:21;101401.94;;;5.66;100.00
65329;BME280;51941;52.210;5.158;2023-03-16T05:41:49;101395.41;;;5.62;100.00
65329;BME280;51941;52.210;5.158;2023-03-16T05:44:22;101400.47;;;5.63;100.00
65329;BME280;51941;52.210;5.158;2023-03-16T05:47:08;101389.97;;;5.63;100.00
65329;BME280;51941;52.210;5.158;2023-03-16T05:49:40;101384.84;;;5.55;100.00
65329;BME280;51941;52.210;5.158;2023-03-16T05:52:13;101383.78;;;5.50;100.00
65329;BME280;51941;52.210;5.158;2023-03-16T05:54:39;101384.19;;;5.53;100.00
65329;BME280;51941;52.210;5.158;2023-03-16T05:57:09;101390.66;;;5.51;100.00
65329;BME280;51941;52.210;5.158;2023-03-16T05:59:37;101388.81;;;5.51;100.00
65329;BME280;51941;52.210;5.158;2023-03-16T06:02:04;101388.03;;;5.51;100.00
65329;BME280;51941;52.210;5.158;2023-03-16T06:04:32;101382.78;;;5.51;100.00
65329;BME280;51941;52.210;5.158;2023-03-16T06:06:59;101382.38;;;5.54;100.00
65329;BME280;51941;52.210;5.158;2023-03-16T06:09:27;101319.09;;;5.13;100.00
65329;BME280;51941;52.210;5.158;2023-03-16T06:11:54;101384.38;;;5.52;100.00
65329;BME280;51941;52.210;5.158;2023-03-16T06:14:21;101380.75;;;5.53;100.00
65329;BME280;51941;52.210;5.158;2023-03-16T06:16:51;101372.97;;;5.45;100.00
65329;BME280;51941;52.210;5.158;2023-03-16T06:19:19;101369.25;;;5.54;100.00
65329;BME280;51941;52.210;5.158;2023-03-16T06:21:50;101366.00;;;5.52;100.00
65329;BME280;51941;52.210;5.158;2023-03-16T06:24:17;101364.00;;;5.54;100.00
65329;BME280;51941;52.210;5.158;2023-03-16T06:26:44;101381.03;;;5.58;100.00
65329;BME280;51941;52.210;5.158;2023-03-16T06:29:12;101374.03;;;5.65;100.00
65329;BME280;51941;52.210;5.158;2023-03-16T06:31:39;101354.78;;;5.58;100.00
65329;BME280;51941;52.210;5.158;2023-03-16T06:34:08;101368.84;;;5.71;100.00
65329;BME280;51941;52.210;5.158;2023-03-16T06:36:34;101340.38;;;5.54;100.00
65329;BME280;51941;52.210;5.158;2023-03-16T06:39:04;101367.03;;;5.72;100.00
65329;BME280;51941;52.210;5.158;2023-03-16T06:41:35;101367.50;;;5.75;100.00
65329;BME280;51941;52.210;5.158;2023-03-16T06:44:02;101365.88;;;5.74;100.00
65329;BME280;51941;52.210;5.158;2023-03-16T06:46:31;101362.97;;;5.69;100.00
65329;BME280;51941;52.210;5.158;2023-03-16T06:49:00;101353.97;;;5.78;100.00
65329;BME280;51941;52.210;5.158;2023-03-16T06:51:30;101354.88;;;5.86;100.00
65329;BME280;51941;52.210;5.158;2023-03-16T06:53:57;101375.69;;;5.87;100.00
65329;BME280;51941;52.210;5.158;2023-03-16T06:56:24;101360.38;;;5.91;100.00
65329;BME280;51941;52.210;5.158;2023-03-16T06:58:52;101345.06;;;5.94;100.00
65329;BME280;51941;52.210;5.158;2023-03-16T07:01:19;101349.03;;;5.90;100.00
65329;BME280;51941;52.210;5.158;2023-03-16T07:03:46;101339.13;;;5.86;100.00
65329;BME280;51941;52.210;5.158;2023-03-16T07:06:18;101340.97;;;5.92;100.00
65329;BME280;51941;52.210;5.158;2023-03-16T07:08:46;101343.66;;;5.98;100.00
65329;BME280;51941;52.210;5.158;2023-03-16T07:11:13;101346.78;;;6.08;100.00
65329;BME280;51941;52.210;5.158;2023-03-16T07:13:40;101302.25;;;5.79;100.00
65329;BME280;51941;52.210;5.158;2023-03-16T07:16:09;101345.97;;;6.08;100.00
65329;BME280;51941;52.210;5.158;2023-03-16T07:18:36;101316.56;;;5.98;100.00
65329;BME280;51941;52.210;5.158;2023-03-16T07:21:06;101343.16;;;6.09;100.00
65329;BME280;51941;52.210;5.158;2023-03-16T07:23:33;101335.91;;;6.11;100.00
65329;BME280;51941;52.210;5.158;2023-03-16T07:26:04;101275.75;;;5.74;100.00
65329;BME280;51941;52.210;5.158;2023-03-16T07:28:33;101319.59;;;5.95;100.00
65329;BME280;51941;52.210;5.158;2023-03-16T07:31:01;101329.22;;;6.09;100.00
65329;BME280;51941;52.210;5.158;2023-03-16T07:33:31;101336.06;;;6.03;100.00
65329;BME280;51941;52.210;5.158;2023-03-16T07:36:01;101341.78;;;6.13;100.00
65329;BME280;51941;52.210;5.158;2023-03-16T07:38:30;101344.63;;;6.12;100.00
65329;BME280;51941;52.210;5.158;2023-03-16T07:40:57;101345.75;;;6.03;100.00
65329;BME280;51941;52.210;5.158;2023-03-16T07:43:25;101348.03;;;6.12;100.00
65329;BME280;51941;52.210;5.158;2023-03-16T07:45:54;101304.69;;;5.80;100.00
65329;BME280;51941;52.210;5.158;2023-03-16T07:48:23;101351.38;;;6.21;100.00
65329;BME280;51941;52.210;5.158;2023-03-16T07:50:54;101323.09;;;6.02;100.00
65329;BME280;51941;52.210;5.158;2023-03-16T07:53:22;101318.72;;;6.09;100.00
65329;BME280;51941;52.210;5.158;2023-03-16T07:55:57;101324.19;;;6.14;100.00
65329;BME280;51941;52.210;5.158;2023-03-16T07:58:26;101347.69;;;6.43;100.00
65329;BME280;51941;52.210;5.158;2023-03-16T08:00:55;101342.25;;;6.45;100.00
65329;BME280;51941;52.210;5.158;2023-03-16T08:03:23;101344.56;;;6.54;100.00
65329;BME280;51941;52.210;5.158;2023-03-16T08:05:49;101334.69;;;6.63;100.00
65329;BME280;51941;52.210;5.158;2023-03-16T08:08:17;101309.00;;;6.65;100.00
65329;BME280;51941;52.210;5.158;2023-03-16T08:10:46;101335.09;;;6.94;100.00
65329;BME280;51941;52.210;5.158;2023-03-16T08:13:17;101332.28;;;7.03;100.00
65329;BME280;51941;52.210;5.158;2023-03-16T08:15:51;101322.41;;;7.11;100.00
65329;BME280;51941;52.210;5.158;2023-03-16T08:18:28;101327.19;;;6.94;100.00
65329;BME280;51941;52.210;5.158;2023-03-16T08:20:56;101307.75;;;6.96;100.00
65329;BME280;51941;52.210;5.158;2023-03-16T08:23:24;101328.06;;;7.08;100.00
65329;BME280;51941;52.210;5.158;2023-03-16T08:25:52;101341.59;;;6.99;100.00
65329;BME280;51941;52.210;5.158;2023-03-16T08:28:19;101309.34;;;6.90;100.00
65329;BME280;51941;52.210;5.158;2023-03-16T08:30:50;101340.22;;;7.09;100.00
65329;BME280;51941;52.210;5.158;2023-03-16T08:33:38;101339.09;;;7.25;100.00
65329;BME280;51941;52.210;5.158;2023-03-16T08:36:06;101338.09;;;7.26;100.00
65329;BME280;51941;52.210;5.158;2023-03-16T08:38:34;101349.97;;;7.15;99.55
65329;BME280;51941;52.210;5.158;2023-03-16T08:41:05;101340.56;;;7.34;99.33
65329;BME280;51941;52.210;5.158;2023-03-16T08:43:33;101331.59;;;7.28;98.66
65329;BME280;51941;52.210;5.158;2023-03-16T08:46:01;101308.47;;;7.17;97.99
65329;BME280;51941;52.210;5.158;2023-03-16T08:48:39;101332.50;;;7.42;97.23
65329;BME280;51941;52.210;5.158;2023-03-16T08:51:06;101334.53;;;7.47;96.65
65329;BME280;51941;52.210;5.158;2023-03-16T08:53:33;101322.81;;;7.56;96.50
65329;BME280;51941;52.210;5.158;2023-03-16T08:56:02;101322.16;;;7.47;96.80
65329;BME280;51941;52.210;5.158;2023-03-16T08:58:31;101318.34;;;7.56;95.88
65329;BME280;51941;52.210;5.158;2023-03-16T09:00:58;101327.50;;;7.67;95.25
65329;BME280;51941;52.210;5.158;2023-03-16T09:03:27;101275.19;;;7.51;94.89
65329;BME280;51941;52.210;5.158;2023-03-16T09:05:59;101292.03;;;7.70;94.10
65329;BME280;51941;52.210;5.158;2023-03-16T09:08:27;101300.97;;;7.75;93.39
65329;BME280;51941;52.210;5.158;2023-03-16T09:10:58;101305.41;;;7.81;93.26
65329;BME280;51941;52.210;5.158;2023-03-16T09:13:25;101317.00;;;7.93;92.90
65329;BME280;51941;52.210;5.158;2023-03-16T09:15:53;101310.31;;;7.84;92.26
65329;BME280;51941;52.210;5.158;2023-03-16T09:18:20;101307.69;;;8.04;92.38
65329;BME280;51941;52.210;5.158;2023-03-16T09:20:49;101310.91;;;8.06;91.79
65329;BME280;51941;52.210;5.158;2023-03-16T09:23:16;101286.56;;;7.91;91.77
65329;BME280;51941;52.210;5.158;2023-03-16T09:25:43;101304.84;;;8.05;91.12
65329;BME280;51941;52.210;5.158;2023-03-16T09:28:10;101305.44;;;8.07;90.23
65329;BME280;51941;52.210;5.158;2023-03-16T09:30:37;101295.72;;;8.15;89.74
65329;BME280;51941;52.210;5.158;2023-03-16T09:33:04;101295.13;;;8.13;89.03
65329;BME280;51941;52.210;5.158;2023-03-16T09:35:30;101302.41;;;8.24;89.19
65329;BME280;51941;52.210;5.158;2023-03-16T09:37:58;101305.03;;;8.37;88.66
65329;BME280;51941;52.210;5.158;2023-03-16T09:40:27;101288.59;;;8.41;87.98
65329;BME280;51941;52.210;5.158;2023-03-16T09:43:05;101294.88;;;8.54;87.68
65329;BME280;51941;52.210;5.158;2023-03-16T09:45:39;101284.09;;;8.62;86.66
65329;BME280;51941;52.210;5.158;2023-03-16T09:48:09;101293.81;;;8.74;85.97
65329;BME280;51941;52.210;5.158;2023-03-16T09:50:38;101295.78;;;8.86;85.26
65329;BME280;51941;52.210;5.158;2023-03-16T09:53:15;101304.50;;;8.99;84.49
65329;BME280;51941;52.210;5.158;2023-03-16T09:55:45;101293.47;;;9.15;84.37
65329;BME280;51941;52.210;5.158;2023-03-16T09:58:15;101292.66;;;9.22;82.81
65329;BME280;51941;52.210;5.158;2023-03-16T10:00:47;101211.00;;;8.75;81.88
65329;BME280;51941;52.210;5.158;2023-03-16T10:03:28;101287.38;;;9.22;81.08
65329;BME280;51941;52.210;5.158;2023-03-16T10:05:59;101256.28;;;9.24;81.14
65329;BME280;51941;52.210;5.158;2023-03-16T10:08:31;101284.28;;;9.31;79.94
65329;BME280;51941;52.210;5.158;2023-03-16T10:11:18;101279.09;;;9.49;79.89
65329;BME280;51941;52.210;5.158;2023-03-16T10:13:50;101275.44;;;9.50;78.78
65329;BME280;51941;52.210;5.158;2023-03-16T10:16:22;101276.97;;;9.65;78.42
65329;BME280;51941;52.210;5.158;2023-03-16T10:18:55;101271.00;;;9.76;77.69
65329;BME280;51941;52.210;5.158;2023-03-16T10:21:23;101249.03;;;9.75;77.16
65329;BME280;51941;52.210;5.158;2023-03-16T10:23:53;101266.72;;;9.81;76.17
65329;BME280;51941;52.210;5.158;2023-03-16T10:26:27;101251.06;;;9.80;75.21
65329;BME280;51941;52.210;5.158;2023-03-16T10:28:56;101255.94;;;10.01;74.74
65329;BME280;51941;52.210;5.158;2023-03-16T10:31:26;101258.56;;;10.08;74.63
65329;BME280;51941;52.210;5.158;2023-03-16T10:33:57;101258.22;;;10.22;74.18
65329;BME280;51941;52.210;5.158;2023-03-16T10:36:30;101249.19;;;10.30;73.67
65329;BME280;51941;52.210;5.158;2023-03-16T10:39:02;101256.63;;;10.40;73.16
65329;BME280;51941;52.210;5.158;2023-03-16T10:41:31;101257.56;;;10.45;73.08
65329;BME280;51941;52.210;5.158;2023-03-16T10:44:00;101252.25;;;10.52;71.87
65329;BME280;51941;52.210;5.158;2023-03-16T10:46:36;101258.81;;;10.61;71.82
65329;BME280;51941;52.210;5.158;2023-03-16T10:49:03;101253.56;;;10.79;72.23
65329;BME280;51941;52.210;5.158;2023-03-16T10:51:33;101235.31;;;10.89;71.17
65329;BME280;51941;52.210;5.158;2023-03-16T10:54:07;101222.97;;;10.83;70.45
65329;BME280;51941;52.210;5.158;2023-03-16T10:56:36;101231.56;;;10.97;69.39
65329;BME280;51941;52.210;5.158;2023-03-16T10:59:14;101218.25;;;11.03;68.76
65329;BME280;51941;52.210;5.158;2023-03-16T11:01:44;101224.78;;;11.01;66.98
65329;BME280;51941;52.210;5.158;2023-03-16T11:04:14;101220.34;;;11.13;66.88
65329;BME280;51941;52.210;5.158;2023-03-16T11:06:52;101220.00;;;11.10;65.88
65329;BME280;51941;52.210;5.158;2023-03-16T11:09:22;101214.47;;;11.11;66.03
65329;BME280;51941;52.210;5.158;2023-03-16T11:11:51;101222.72;;;11.33;66.13
65329;BME280;51941;52.210;5.158;2023-03-16T11:14:20;101207.53;;;11.40;66.01
65329;BME280;51941;52.210;5.158;2023-03-16T11:16:50;101200.38;;;11.40;65.82
65329;BME280;51941;52.210;5.158;2023-03-16T11:19:22;101172.34;;;11.21;65.67
65329;BME280;51941;52.210;5.158;2023-03-16T11:21:52;101197.75;;;11.52;65.44
65329;BME280;51941;52.210;5.158;2023-03-16T11:24:29;101197.44;;;11.60;65.18
65329;BME280;51941;52.210;5.158;2023-03-16T11:27:01;101188.00;;;11.64;64.54
65329;BME280;51941;52.210;5.158;2023-03-16T11:29:40;101184.41;;;11.70;63.75
65329;BME280;51941;52.210;5.158;2023-03-16T11:32:10;101182.22;;;11.67;63.40
65329;BME280;51941;52.210;5.158;2023-03-16T11:34:39;101188.34;;;11.79;63.81
65329;BME280;51941;52.210;5.158;2023-03-16T11:37:15;101169.22;;;11.66;62.67
65329;BME280;51941;52.210;5.158;2023-03-16T11:39:59;101188.91;;;11.93;62.44
65329;BME280;51941;52.210;5.158;2023-03-16T11:42:36;101190.09;;;12.09;62.30
65329;BME280;51941;52.210;5.158;2023-03-16T11:45:14;101190.34;;;12.19;62.05
65329;BME280;51941;52.210;5.158;2023-03-16T11:47:56;101192.50;;;12.22;61.49
65329;BME280;51941;52.210;5.158;2023-03-16T11:50:34;101185.13;;;12.36;60.98
65329;BME280;51941;52.210;5.158;2023-03-16T11:53:12;101152.56;;;12.29;59.81
65329;BME280;51941;52.210;5.158;2023-03-16T11:55:50;101176.38;;;12.64;58.77
65329;BME280;51941;52.210;5.158;2023-03-16T11:58:37;101173.25;;;12.67;57.03
65329;BME280;51941;52.210;5.158;2023-03-16T12:01:15;101164.50;;;12.66;56.95
65329;BME280;51941;52.210;5.158;2023-03-16T12:03:56;101168.94;;;12.89;56.53
65329;BME280;51941;52.210;5.158;2023-03-16T12:06:44;101165.81;;;13.09;55.47
65329;BME280;51941;52.210;5.158;2023-03-16T12:09:42;101168.41;;;13.20;54.46
65329;BME280;51941;52.210;5.158;2023-03-16T12:12:23;101162.06;;;13.21;53.80
65329;BME280;51941;52.210;5.158;2023-03-16T12:15:07;101162.53;;;13.35;53.58
65329;BME280;51941;52.210;5.158;2023-03-16T12:17:40;101160.16;;;13.34;52.00
65329;BME280;51941;52.210;5.158;2023-03-16T12:20:13;101155.13;;;13.37;51.75
65329;BME280;51941;52.210;5.158;2023-03-16T12:22:48;101156.84;;;13.43;52.32
65329;BME280;51941;52.210;5.158;2023-03-16T12:25:19;101154.69;;;13.40;51.86
65329;BME280;51941;52.210;5.158;2023-03-16T12:27:51;101159.84;;;13.47;50.80
65329;BME280;51941;52.210;5.158;2023-03-16T12:30:26;101147.97;;;13.38;49.97
65329;BME280;51941;52.210;5.158;2023-03-16T12:33:01;101131.84;;;13.27;50.03
65329;BME280;51941;52.210;5.158;2023-03-16T12:35:38;101149.22;;;13.47;50.59
65329;BME280;51941;52.210;5.158;2023-03-16T12:38:18;101126.03;;;13.42;49.95
65329;BME280;51941;52.210;5.158;2023-03-16T12:40:53;101134.31;;;13.46;49.67
65329;BME280;51941;52.210;5.158;2023-03-16T12:43:37;101134.91;;;13.69;48.86
65329;BME280;51941;52.210;5.158;2023-03-16T12:46:10;101121.53;;;13.81;49.06
65329;BME280;51941;52.210;5.158;2023-03-16T12:48:41;101100.06;;;13.88;49.37
65329;BME280;51941;52.210;5.158;2023-03-16T12:51:10;101112.69;;;13.97;48.43
65329;BME280;51941;52.210;5.158;2023-03-16T12:53:43;101113.31;;;14.04;48.07
65329;BME280;51941;52.210;5.158;2023-03-16T12:56:12;101098.03;;;14.17;47.76
65329;BME280;51941;52.210;5.158;2023-03-16T12:58:43;101081.81;;;14.18;47.63
65329;BME280;51941;52.210;5.158;2023-03-16T13:01:11;101089.56;;;14.20;47.45
65329;BME280;51941;52.210;5.158;2023-03-16T13:03:40;101080.28;;;14.00;47.55
65329;BME280;51941;52.210;5.158;2023-03-16T13:06:15;101073.34;;;13.99;47.29
65329;BME280;51941;52.210;5.158;2023-03-16T13:08:49;101066.84;;;13.90;47.24
65329;BME280;51941;52.210;5.158;2023-03-16T13:11:17;101065.84;;;13.96;47.61